sensor_id;sensor_type;location;lat;lon;timestamp;P1;durP1;ratioP1;P2;durP2;ratioP2
62724;SDS011;49026;52.600;4.694;2023-03-01T00:00:42;21.35;;;11.32;;
62724;SDS011;49026;52.600;4.694;2023-03-01T00:03:11;22.43;;;12.40;;
62724;SDS011;49026;52.600;4.694;2023-03-01T00:05:48;24.52;;;12.70;;
62724;SDS011;49026;52.600;4.694;2023-03-01T00:08:16;29.75;;;13.60;;
62724;SDS011;49026;52.600;4.694;2023-03-01T00:10:41;23.10;;;11.55;;
62724;SDS011;49026;52.600;4.694;2023-03-01T00:13:06;26.52;;;12.48;;
62724;SDS011;49026;52.600;4.694;2023-03-01T00:15:37;23.08;;;11.35;;
62724;SDS011;49026;52.600;4.694;2023-03-01T00:18:03;28.58;;;13.48;;
62724;SDS011;49026;52.600;4.694;2023-03-01T00:20:31;19.13;;;11.30;;
62724;SDS011;49026;52.600;4.694;2023-03-01T00:22:56;26.00;;;12.95;;
62724;SDS011;49026;52.600;4.694;2023-03-01T00:25:24;22.58;;;13.15;;
62724;SDS011;49026;52.600;4.694;2023-03-01T00:27:51;22.90;;;13.15;;
62724;SDS011;49026;52.600;4.694;2023-03-01T00:30:17;21.25;;;11.38;;
62724;SDS011;49026;52.600;4.694;2023-03-01T00:32:42;28.55;;;12.93;;
62724;SDS011;49026;52.600;4.694;2023-03-01T00:35:11;20.40;;;12.20;;
62724;SDS011;49026;52.600;4.694;2023-03-01T00:37:36;32.60;;;13.13;;
62724;SDS011;49026;52.600;4.694;2023-03-01T00:40:04;26.85;;;12.68;;
62724;SDS011;49026;52.600;4.694;2023-03-01T00:42:31;21.92;;;10.90;;
62724;SDS011;49026;52.600;4.694;2023-03-01T00:44:56;21.42;;;11.15;;
62724;SDS011;49026;52.600;4.694;2023-03-01T00:47:21;18.02;;;10.23;;
62724;SDS011;49026;52.600;4.694;2023-03-01T00:49:47;19.10;;;11.18;;
62724;SDS011;49026;52.600;4.694;2023-03-01T00:52:13;16.63;;;10.38;;
62724;SDS011;49026;52.600;4.694;2023-03-01T00:54:38;19.58;;;8.40;;
62724;SDS011;49026;52.600;4.694;2023-03-01T00:57:05;24.88;;;11.73;;
62724;SDS011;49026;52.600;4.694;2023-03-01T00:59:33;23.50;;;11.75;;
62724;SDS011;49026;52.600;4.694;2023-03-01T01:01:59;29.05;;;12.63;;
62724;SDS011;49026;52.600;4.694;2023-03-01T01:04:25;19.45;;;11.52;;
62724;SDS011;49026;52.600;4.694;2023-03-01T01:06:50;21.73;;;11.80;;
62724;SDS011;49026;52.600;4.694;2023-03-01T01:09:16;24.40;;;10.63;;
62724;SDS011;49026;52.600;4.694;2023-03-01T01:11:46;24.75;;;11.18;;
62724;SDS011;49026;52.600;4.694;2023-03-01T01:14:13;20.77;;;10.90;;
62724;SDS011;49026;52.600;4.694;2023-03-01T01:16:39;19.92;;;11.18;;
62724;SDS011;49026;52.600;4.694;2023-03-01T01:19:04;18.23;;;10.68;;
62724;SDS011;49026;52.600;4.694;2023-03-01T01:21:30;19.15;;;10.93;;
62724;SDS011;49026;52.600;4.694;2023-03-01T01:23:56;19.65;;;10.35;;
62724;SDS011;49026;52.600;4.694;2023-03-01T01:26:22;15.65;;;9.88;;
62724;SDS011;49026;52.600;4.694;2023-03-01T01:28:52;21.00;;;11.77;;
62724;SDS011;49026;52.600;4.694;2023-03-01T01:31:18;21.33;;;10.75;;
62724;SDS011;49026;52.600;4.694;2023-03-01T01:33:47;16.80;;;9.27;;
62724;SDS011;49026;52.600;4.694;2023-03-01T01:36:12;18.55;;;11.27;;
62724;SDS011;49026;52.600;4.694;2023-03-01T01:38:38;17.17;;;9.75;;
62724;SDS011;49026;52.600;4.694;2023-03-01T01:41:04;16.92;;;9.85;;
62724;SDS011;49026;52.600;4.694;2023-03-01T01:43:33;11.82;;;7.22;;
62724;SDS011;49026;52.600;4.694;2023-03-01T01:46:07;20.67;;;10.15;;
62724;SDS011;49026;52.600;4.694;2023-03-01T01:48:42;19.58;;;11.30;;
62724;SDS011;49026;52.600;4.694;2023-03-01T01:51:13;15.57;;;9.02;;
62724;SDS011;49026;52.600;4.694;2023-03-01T01:53:42;20.85;;;10.27;;
62724;SDS011;49026;52.600;4.694;2023-03-01T01:56:11;16.67;;;9.73;;
62724;SDS011;49026;52.600;4.694;2023-03-01T01:58:40;18.23;;;9.85;;
62724;SDS011;49026;52.600;4.694;2023-03-01T02:01:10;20.88;;;8.95;;
62724;SDS011;49026;52.600;4.694;2023-03-01T02:03:37;15.30;;;8.68;;
62724;SDS011;49026;52.600;4.694;2023-03-01T02:08:35;14.00;;;8.38;;
62724;SDS011;49026;52.600;4.694;2023-03-01T02:11:03;13.70;;;7.82;;
62724;SDS011;49026;52.600;4.694;2023-03-01T02:13:31;12.48;;;7.82;;
62724;SDS011;49026;52.600;4.694;2023-03-01T02:15:58;13.43;;;7.93;;
62724;SDS011;49026;52.600;4.694;2023-03-01T02:18:27;15.05;;;9.13;;
62724;SDS011;49026;52.600;4.694;2023-03-01T02:23:51;13.55;;;8.07;;
62724;SDS011;49026;52.600;4.694;2023-03-01T02:28:44;12.23;;;7.45;;
62724;SDS011;49026;52.600;4.694;2023-03-01T02:31:10;17.30;;;9.77;;
62724;SDS011;49026;52.600;4.694;2023-03-01T02:33:59;19.77;;;10.00;;
62724;SDS011;49026;52.600;4.694;2023-03-01T02:36:26;15.55;;;7.47;;
62724;SDS011;49026;52.600;4.694;2023-03-01T02:38:58;14.75;;;8.27;;
62724;SDS011;49026;52.600;4.694;2023-03-01T02:41:26;15.88;;;9.60;;
62724;SDS011;49026;52.600;4.694;2023-03-01T02:43:55;16.98;;;9.68;;
62724;SDS011;49026;52.600;4.694;2023-03-01T02:46:22;16.00;;;9.25;;
62724;SDS011;49026;52.600;4.694;2023-03-01T02:48:49;20.27;;;7.47;;
62724;SDS011;49026;52.600;4.694;2023-03-01T02:56:45;11.70;;;6.93;;
62724;SDS011;49026;52.600;4.694;2023-03-01T02:59:16;10.52;;;6.57;;
62724;SDS011;49026;52.600;4.694;2023-03-01T03:01:47;11.02;;;7.38;;
62724;SDS011;49026;52.600;4.694;2023-03-01T03:04:14;13.02;;;7.00;;
62724;SDS011;49026;52.600;4.694;2023-03-01T03:06:44;15.13;;;6.90;;
62724;SDS011;49026;52.600;4.694;2023-03-01T03:09:11;13.55;;;7.53;;
62724;SDS011;49026;52.600;4.694;2023-03-01T03:11:37;12.05;;;7.63;;
62724;SDS011;49026;52.600;4.694;2023-03-01T03:14:07;19.95;;;10.82;;
62724;SDS011;49026;52.600;4.694;2023-03-01T03:16:39;20.35;;;9.48;;
62724;SDS011;49026;52.600;4.694;2023-03-01T03:19:07;20.70;;;9.75;;
62724;SDS011;49026;52.600;4.694;2023-03-01T03:21:33;14.32;;;8.43;;
62724;SDS011;49026;52.600;4.694;2023-03-01T03:23:58;21.73;;;10.18;;
62724;SDS011;49026;52.600;4.694;2023-03-01T03:26:29;17.02;;;10.00;;
62724;SDS011;49026;52.600;4.694;2023-03-01T03:28:54;14.45;;;7.90;;
62724;SDS011;49026;52.600;4.694;2023-03-01T03:31:22;12.57;;;7.45;;
62724;SDS011;49026;52.600;4.694;2023-03-01T03:33:47;16.77;;;9.20;;
62724;SDS011;49026;52.600;4.694;2023-03-01T03:36:16;19.13;;;11.65;;
62724;SDS011;49026;52.600;4.694;2023-03-01T03:38:46;14.63;;;8.48;;
62724;SDS011;49026;52.600;4.694;2023-03-01T03:41:14;18.42;;;9.77;;
62724;SDS011;49026;52.600;4.694;2023-03-01T03:43:40;11.90;;;7.10;;
62724;SDS011;49026;52.600;4.694;2023-03-01T03:46:07;15.55;;;9.60;;
62724;SDS011;49026;52.600;4.694;2023-03-01T03:48:38;17.55;;;9.10;;
62724;SDS011;49026;52.600;4.694;2023-03-01T03:51:05;14.82;;;7.57;;
62724;SDS011;49026;52.600;4.694;2023-03-01T03:53:31;16.60;;;8.43;;
62724;SDS011;49026;52.600;4.694;2023-03-01T03:55:57;19.13;;;9.95;;
62724;SDS011;49026;52.600;4.694;2023-03-01T03:58:23;16.95;;;8.45;;
62724;SDS011;49026;52.600;4.694;2023-03-01T04:00:51;15.27;;;7.55;;
62724;SDS011;49026;52.600;4.694;2023-03-01T04:03:20;15.20;;;7.20;;
62724;SDS011;49026;52.600;4.694;2023-03-01T04:05:47;13.18;;;7.13;;
62724;SDS011;49026;52.600;4.694;2023-03-01T04:08:17;14.75;;;8.93;;
62724;SDS011;49026;52.600;4.694;2023-03-01T04:10:46;17.08;;;9.93;;
62724;SDS011;49026;52.600;4.694;2023-03-01T04:13:14;11.75;;;6.72;;
62724;SDS011;49026;52.600;4.694;2023-03-01T04:15:44;16.45;;;7.45;;
62724;SDS011;49026;52.600;4.694;2023-03-01T04:18:11;19.15;;;8.98;;
62724;SDS011;49026;52.600;4.694;2023-03-01T04:20:41;19.17;;;8.25;;
62724;SDS011;49026;52.600;4.694;2023-03-01T04:23:11;21.98;;;9.63;;
62724;SDS011;49026;52.600;4.694;2023-03-01T04:25:53;20.83;;;9.25;;
62724;SDS011;49026;52.600;4.694;2023-03-01T04:30:50;16.45;;;8.30;;
62724;SDS011;49026;52.600;4.694;2023-03-01T04:33:16;18.60;;;9.05;;
62724;SDS011;49026;52.600;4.694;2023-03-01T04:35:42;15.05;;;8.30;;
62724;SDS011;49026;52.600;4.694;2023-03-01T04:38:07;19.58;;;9.10;;
62724;SDS011;49026;52.600;4.694;2023-03-01T04:40:33;17.17;;;9.25;;
62724;SDS011;49026;52.600;4.694;2023-03-01T04:42:59;15.98;;;9.13;;
62724;SDS011;49026;52.600;4.694;2023-03-01T04:45:24;21.85;;;8.40;;
62724;SDS011;49026;52.600;4.694;2023-03-01T04:47:54;13.95;;;8.38;;
62724;SDS011;49026;52.600;4.694;2023-03-01T04:50:25;22.92;;;7.72;;
62724;SDS011;49026;52.600;4.694;2023-03-01T04:52:50;18.85;;;10.13;;
62724;SDS011;49026;52.600;4.694;2023-03-01T04:55:16;17.20;;;9.10;;
62724;SDS011;49026;52.600;4.694;2023-03-01T04:57:41;13.30;;;7.38;;
62724;SDS011;49026;52.600;4.694;2023-03-01T05:00:10;27.20;;;7.90;;
62724;SDS011;49026;52.600;4.694;2023-03-01T05:03:01;17.75;;;9.38;;
62724;SDS011;49026;52.600;4.694;2023-03-01T05:05:27;15.18;;;8.35;;
62724;SDS011;49026;52.600;4.694;2023-03-01T05:07:56;19.88;;;7.68;;
62724;SDS011;49026;52.600;4.694;2023-03-01T05:10:25;15.45;;;7.93;;
62724;SDS011;49026;52.600;4.694;2023-03-01T05:12:53;19.98;;;9.90;;
62724;SDS011;49026;52.600;4.694;2023-03-01T05:15:19;19.88;;;10.63;;
62724;SDS011;49026;52.600;4.694;2023-03-01T05:17:46;16.77;;;8.85;;
62724;SDS011;49026;52.600;4.694;2023-03-01T05:20:12;20.67;;;10.30;;
62724;SDS011;49026;52.600;4.694;2023-03-01T05:22:40;12.88;;;7.80;;
62724;SDS011;49026;52.600;4.694;2023-03-01T05:25:05;11.75;;;6.93;;
62724;SDS011;49026;52.600;4.694;2023-03-01T05:27:32;13.20;;;8.18;;
62724;SDS011;49026;52.600;4.694;2023-03-01T05:30:01;18.00;;;9.43;;
62724;SDS011;49026;52.600;4.694;2023-03-01T05:32:38;21.10;;;10.23;;
62724;SDS011;49026;52.600;4.694;2023-03-01T05:35:05;148.98;;;15.93;;
62724;SDS011;49026;52.600;4.694;2023-03-01T05:37:30;68.15;;;11.93;;
62724;SDS011;49026;52.600;4.694;2023-03-01T05:39:55;14.20;;;8.60;;
62724;SDS011;49026;52.600;4.694;2023-03-01T05:42:21;12.02;;;6.80;;
62724;SDS011;49026;52.600;4.694;2023-03-01T05:44:46;14.80;;;8.40;;
62724;SDS011;49026;52.600;4.694;2023-03-01T05:47:11;21.75;;;8.73;;
62724;SDS011;49026;52.600;4.694;2023-03-01T05:49:37;11.77;;;6.70;;
62724;SDS011;49026;52.600;4.694;2023-03-01T05:52:02;13.70;;;7.82;;
62724;SDS011;49026;52.600;4.694;2023-03-01T05:54:27;12.70;;;8.02;;
62724;SDS011;49026;52.600;4.694;2023-03-01T05:56:52;12.30;;;7.55;;
62724;SDS011;49026;52.600;4.694;2023-03-01T05:59:18;17.25;;;6.10;;
62724;SDS011;49026;52.600;4.694;2023-03-01T06:01:45;12.63;;;7.45;;
62724;SDS011;49026;52.600;4.694;2023-03-01T06:04:10;12.90;;;7.15;;
62724;SDS011;49026;52.600;4.694;2023-03-01T06:06:36;11.30;;;7.38;;
62724;SDS011;49026;52.600;4.694;2023-03-01T06:09:05;13.27;;;8.18;;
62724;SDS011;49026;52.600;4.694;2023-03-01T06:11:34;15.50;;;7.85;;
62724;SDS011;49026;52.600;4.694;2023-03-01T06:14:02;11.75;;;6.45;;
62724;SDS011;49026;52.600;4.694;2023-03-01T06:16:31;13.98;;;8.43;;
62724;SDS011;49026;52.600;4.694;2023-03-01T06:19:03;15.88;;;7.45;;
62724;SDS011;49026;52.600;4.694;2023-03-01T06:21:31;11.88;;;7.85;;
62724;SDS011;49026;52.600;4.694;2023-03-01T06:23:57;19.05;;;8.93;;
62724;SDS011;49026;52.600;4.694;2023-03-01T06:26:29;16.25;;;10.23;;
62724;SDS011;49026;52.600;4.694;2023-03-01T06:28:55;22.75;;;10.52;;
62724;SDS011;49026;52.600;4.694;2023-03-01T06:31:20;20.27;;;10.38;;
62724;SDS011;49026;52.600;4.694;2023-03-01T06:33:48;15.38;;;8.00;;
62724;SDS011;49026;52.600;4.694;2023-03-01T06:36:13;25.25;;;12.82;;
62724;SDS011;49026;52.600;4.694;2023-03-01T06:38:41;114.60;;;16.02;;
62724;SDS011;49026;52.600;4.694;2023-03-01T06:41:08;56.60;;;15.20;;
62724;SDS011;49026;52.600;4.694;2023-03-01T06:43:33;21.00;;;12.05;;
62724;SDS011;49026;52.600;4.694;2023-03-01T06:45:58;56.03;;;11.60;;
62724;SDS011;49026;52.600;4.694;2023-03-01T06:48:23;140.57;;;15.95;;
62724;SDS011;49026;52.600;4.694;2023-03-01T06:50:49;271.73;;;25.30;;
62724;SDS011;49026;52.600;4.694;2023-03-01T06:53:16;139.57;;;21.90;;
62724;SDS011;49026;52.600;4.694;2023-03-01T06:55:42;51.00;;;16.40;;
62724;SDS011;49026;52.600;4.694;2023-03-01T06:58:08;57.97;;;19.35;;
62724;SDS011;49026;52.600;4.694;2023-03-01T07:00:34;108.20;;;21.15;;
62724;SDS011;49026;52.600;4.694;2023-03-01T07:03:01;67.13;;;19.42;;
62724;SDS011;49026;52.600;4.694;2023-03-01T07:05:27;46.58;;;19.80;;
62724;SDS011;49026;52.600;4.694;2023-03-01T07:07:55;44.58;;;19.50;;
62724;SDS011;49026;52.600;4.694;2023-03-01T07:10:23;41.13;;;17.42;;
62724;SDS011;49026;52.600;4.694;2023-03-01T07:12:54;50.67;;;18.55;;
62724;SDS011;49026;52.600;4.694;2023-03-01T07:15:20;36.22;;;17.92;;
62724;SDS011;49026;52.600;4.694;2023-03-01T07:17:45;51.42;;;22.88;;
62724;SDS011;49026;52.600;4.694;2023-03-01T07:20:13;54.50;;;21.55;;
62724;SDS011;49026;52.600;4.694;2023-03-01T07:22:41;52.15;;;22.38;;
62724;SDS011;49026;52.600;4.694;2023-03-01T07:25:07;56.22;;;23.50;;
62724;SDS011;49026;52.600;4.694;2023-03-01T07:27:33;45.20;;;20.25;;
62724;SDS011;49026;52.600;4.694;2023-03-01T07:29:58;42.83;;;21.05;;
62724;SDS011;49026;52.600;4.694;2023-03-01T07:32:23;29.35;;;17.60;;
62724;SDS011;49026;52.600;4.694;2023-03-01T07:34:51;23.05;;;13.07;;
62724;SDS011;49026;52.600;4.694;2023-03-01T07:37:19;32.42;;;17.05;;
62724;SDS011;49026;52.600;4.694;2023-03-01T07:39:47;32.63;;;16.90;;
62724;SDS011;49026;52.600;4.694;2023-03-01T07:42:12;40.92;;;19.65;;
62724;SDS011;49026;52.600;4.694;2023-03-01T07:44:37;35.25;;;16.42;;
62724;SDS011;49026;52.600;4.694;2023-03-01T07:47:03;41.90;;;21.38;;
62724;SDS011;49026;52.600;4.694;2023-03-01T07:49:29;34.20;;;17.80;;
62724;SDS011;49026;52.600;4.694;2023-03-01T07:51:54;47.47;;;20.92;;
62724;SDS011;49026;52.600;4.694;2023-03-01T07:54:20;39.15;;;19.60;;
62724;SDS011;49026;52.600;4.694;2023-03-01T07:56:45;34.38;;;18.73;;
62724;SDS011;49026;52.600;4.694;2023-03-01T07:59:13;39.88;;;21.50;;
62724;SDS011;49026;52.600;4.694;2023-03-01T08:01:38;38.60;;;20.55;;
62724;SDS011;49026;52.600;4.694;2023-03-01T08:04:04;35.85;;;20.48;;
62724;SDS011;49026;52.600;4.694;2023-03-01T08:06:33;38.90;;;21.13;;
62724;SDS011;49026;52.600;4.694;2023-03-01T08:08:59;38.00;;;21.33;;
62724;SDS011;49026;52.600;4.694;2023-03-01T08:11:24;33.75;;;19.60;;
62724;SDS011;49026;52.600;4.694;2023-03-01T08:13:50;30.00;;;18.80;;
62724;SDS011;49026;52.600;4.694;2023-03-01T08:16:15;35.03;;;20.73;;
62724;SDS011;49026;52.600;4.694;2023-03-01T08:18:43;35.70;;;22.17;;
62724;SDS011;49026;52.600;4.694;2023-03-01T08:21:11;35.17;;;20.33;;
62724;SDS011;49026;52.600;4.694;2023-03-01T08:23:38;36.15;;;19.83;;
62724;SDS011;49026;52.600;4.694;2023-03-01T08:26:08;31.20;;;18.55;;
62724;SDS011;49026;52.600;4.694;2023-03-01T08:28:38;32.83;;;20.60;;
62724;SDS011;49026;52.600;4.694;2023-03-01T08:31:12;33.72;;;21.02;;
62724;SDS011;49026;52.600;4.694;2023-03-01T08:33:42;33.08;;;20.23;;
62724;SDS011;49026;52.600;4.694;2023-03-01T08:36:08;36.28;;;21.58;;
62724;SDS011;49026;52.600;4.694;2023-03-01T08:38:34;31.83;;;19.95;;
62724;SDS011;49026;52.600;4.694;2023-03-01T08:41:00;29.40;;;18.10;;
62724;SDS011;49026;52.600;4.694;2023-03-01T08:43:29;30.77;;;19.13;;
62724;SDS011;49026;52.600;4.694;2023-03-01T08:45:55;27.60;;;18.75;;
62724;SDS011;49026;52.600;4.694;2023-03-01T08:48:20;25.52;;;17.90;;
62724;SDS011;49026;52.600;4.694;2023-03-01T08:50:46;27.15;;;17.20;;
62724;SDS011;49026;52.600;4.694;2023-03-01T08:53:13;27.33;;;17.00;;
62724;SDS011;49026;52.600;4.694;2023-03-01T08:55:38;26.67;;;16.15;;
62724;SDS011;49026;52.600;4.694;2023-03-01T08:58:04;21.33;;;15.13;;
62724;SDS011;49026;52.600;4.694;2023-03-01T09:00:31;21.48;;;14.35;;
62724;SDS011;49026;52.600;4.694;2023-03-01T09:02:59;22.35;;;14.45;;
62724;SDS011;49026;52.600;4.694;2023-03-01T09:05:27;22.45;;;14.40;;
62724;SDS011;49026;52.600;4.694;2023-03-01T09:07:56;23.70;;;14.40;;
62724;SDS011;49026;52.600;4.694;2023-03-01T09:10:24;25.65;;;14.10;;
62724;SDS011;49026;52.600;4.694;2023-03-01T09:12:50;20.10;;;14.70;;
62724;SDS011;49026;52.600;4.694;2023-03-01T09:15:18;20.73;;;13.55;;
62724;SDS011;49026;52.600;4.694;2023-03-01T09:17:46;26.92;;;14.15;;
62724;SDS011;49026;52.600;4.694;2023-03-01T09:20:11;18.33;;;13.13;;
62724;SDS011;49026;52.600;4.694;2023-03-01T09:22:37;18.15;;;13.20;;
62724;SDS011;49026;52.600;4.694;2023-03-01T09:25:02;20.10;;;12.93;;
62724;SDS011;49026;52.600;4.694;2023-03-01T09:27:27;20.50;;;14.02;;
62724;SDS011;49026;52.600;4.694;2023-03-01T09:29:53;21.30;;;13.82;;
62724;SDS011;49026;52.600;4.694;2023-03-01T09:32:21;21.88;;;14.65;;
62724;SDS011;49026;52.600;4.694;2023-03-01T09:34:46;24.52;;;13.55;;
62724;SDS011;49026;52.600;4.694;2023-03-01T09:37:29;18.83;;;13.15;;
62724;SDS011;49026;52.600;4.694;2023-03-01T09:39:56;20.42;;;13.13;;
62724;SDS011;49026;52.600;4.694;2023-03-01T09:42:22;21.30;;;13.65;;
62724;SDS011;49026;52.600;4.694;2023-03-01T09:47:19;19.33;;;13.57;;
62724;SDS011;49026;52.600;4.694;2023-03-01T09:50:02;21.35;;;13.13;;
62724;SDS011;49026;52.600;4.694;2023-03-01T09:52:38;19.42;;;13.43;;
62724;SDS011;49026;52.600;4.694;2023-03-01T09:55:13;16.70;;;11.93;;
62724;SDS011;49026;52.600;4.694;2023-03-01T09:57:47;17.63;;;12.13;;
62724;SDS011;49026;52.600;4.694;2023-03-01T10:00:26;15.93;;;10.93;;
62724;SDS011;49026;52.600;4.694;2023-03-01T10:03:10;16.80;;;10.77;;
62724;SDS011;49026;52.600;4.694;2023-03-01T10:06:01;18.60;;;11.73;;
62724;SDS011;49026;52.600;4.694;2023-03-01T10:08:40;15.20;;;10.30;;
62724;SDS011;49026;52.600;4.694;2023-03-01T10:11:22;16.02;;;10.60;;
62724;SDS011;49026;52.600;4.694;2023-03-01T10:16:38;13.63;;;10.30;;
62724;SDS011;49026;52.600;4.694;2023-03-01T10:19:16;13.48;;;8.90;;
62724;SDS011;49026;52.600;4.694;2023-03-01T10:21:50;17.30;;;9.23;;
62724;SDS011;49026;52.600;4.694;2023-03-01T10:24:17;14.68;;;10.05;;
62724;SDS011;49026;52.600;4.694;2023-03-01T10:27:01;15.83;;;10.43;;
62724;SDS011;49026;52.600;4.694;2023-03-01T10:29:49;15.52;;;8.75;;
62724;SDS011;49026;52.600;4.694;2023-03-01T10:32:36;10.65;;;7.63;;
62724;SDS011;49026;52.600;4.694;2023-03-01T10:35:14;15.25;;;10.50;;
62724;SDS011;49026;52.600;4.694;2023-03-01T10:37:46;13.82;;;10.18;;
62724;SDS011;49026;52.600;4.694;2023-03-01T10:40:22;16.08;;;10.63;;
62724;SDS011;49026;52.600;4.694;2023-03-01T10:42:50;11.90;;;8.98;;
62724;SDS011;49026;52.600;4.694;2023-03-01T10:45:32;14.52;;;9.68;;
62724;SDS011;49026;52.600;4.694;2023-03-01T10:48:19;16.10;;;9.80;;
62724;SDS011;49026;52.600;4.694;2023-03-01T10:53:27;9.68;;;6.65;;
62724;SDS011;49026;52.600;4.694;2023-03-01T10:58:34;11.97;;;7.63;;
62724;SDS011;49026;52.600;4.694;2023-03-01T11:01:03;13.25;;;8.85;;
62724;SDS011;49026;52.600;4.694;2023-03-01T11:03:40;13.68;;;8.80;;
62724;SDS011;49026;52.600;4.694;2023-03-01T11:08:46;11.18;;;7.78;;
62724;SDS011;49026;52.600;4.694;2023-03-01T11:11:32;15.02;;;9.82;;
62724;SDS011;49026;52.600;4.694;2023-03-01T11:14:00;12.48;;;8.95;;
62724;SDS011;49026;52.600;4.694;2023-03-01T11:16:31;12.93;;;8.57;;
62724;SDS011;49026;52.600;4.694;2023-03-01T11:21:35;11.70;;;7.95;;
62724;SDS011;49026;52.600;4.694;2023-03-01T11:24:04;13.68;;;9.95;;
62724;SDS011;49026;52.600;4.694;2023-03-01T11:26:36;16.52;;;8.68;;
62724;SDS011;49026;52.600;4.694;2023-03-01T11:29:06;11.70;;;6.95;;
62724;SDS011;49026;52.600;4.694;2023-03-01T11:31:41;7.70;;;5.53;;
62724;SDS011;49026;52.600;4.694;2023-03-01T11:34:11;12.57;;;7.45;;
62724;SDS011;49026;52.600;4.694;2023-03-01T11:36:48;9.10;;;6.32;;
62724;SDS011;49026;52.600;4.694;2023-03-01T11:42:46;11.70;;;8.10;;
62724;SDS011;49026;52.600;4.694;2023-03-01T11:45:19;11.05;;;7.43;;
62724;SDS011;49026;52.600;4.694;2023-03-01T11:48:07;6.85;;;5.10;;
62724;SDS011;49026;52.600;4.694;2023-03-01T11:50:47;10.98;;;6.30;;
62724;SDS011;49026;52.600;4.694;2023-03-01T12:04:30;12.80;;;6.50;;
62724;SDS011;49026;52.600;4.694;2023-03-01T12:07:14;8.70;;;5.70;;
62724;SDS011;49026;52.600;4.694;2023-03-01T12:18:32;9.38;;;4.55;;
62724;SDS011;49026;52.600;4.694;2023-03-01T12:29:25;11.98;;;7.88;;
62724;SDS011;49026;52.600;4.694;2023-03-01T12:31:59;13.05;;;8.60;;
62724;SDS011;49026;52.600;4.694;2023-03-01T12:43:00;9.85;;;7.07;;
62724;SDS011;49026;52.600;4.694;2023-03-01T12:46:31;12.45;;;7.57;;
62724;SDS011;49026;52.600;4.694;2023-03-01T12:51:29;14.55;;;9.05;;
62724;SDS011;49026;52.600;4.694;2023-03-01T12:53:57;10.33;;;6.67;;
62724;SDS011;49026;52.600;4.694;2023-03-01T12:56:28;10.23;;;5.90;;
62724;SDS011;49026;52.600;4.694;2023-03-01T13:05:01;7.35;;;5.00;;
62724;SDS011;49026;52.600;4.694;2023-03-01T13:07:35;10.52;;;6.78;;
62724;SDS011;49026;52.600;4.694;2023-03-01T13:15:48;11.30;;;6.28;;
62724;SDS011;49026;52.600;4.694;2023-03-01T13:31:56;11.20;;;6.68;;
62724;SDS011;49026;52.600;4.694;2023-03-01T13:33:59;11.93;;;6.43;;
62724;SDS011;49026;52.600;4.694;2023-03-01T13:46:45;14.97;;;8.60;;
62724;SDS011;49026;52.600;4.694;2023-03-01T13:49:18;8.55;;;5.75;;
62724;SDS011;49026;52.600;4.694;2023-03-01T13:51:48;11.40;;;6.82;;
62724;SDS011;49026;52.600;4.694;2023-03-01T13:54:15;13.73;;;7.45;;
62724;SDS011;49026;52.600;4.694;2023-03-01T13:56:47;14.15;;;8.30;;
62724;SDS011;49026;52.600;4.694;2023-03-01T13:59:14;12.93;;;6.47;;
62724;SDS011;49026;52.600;4.694;2023-03-01T14:01:42;10.73;;;7.15;;
62724;SDS011;49026;52.600;4.694;2023-03-01T14:04:23;12.98;;;7.72;;
62724;SDS011;49026;52.600;4.694;2023-03-01T14:06:52;15.48;;;7.97;;
62724;SDS011;49026;52.600;4.694;2023-03-01T14:09:56;14.32;;;8.30;;
62724;SDS011;49026;52.600;4.694;2023-03-01T14:15:22;12.05;;;7.97;;
62724;SDS011;49026;52.600;4.694;2023-03-01T14:18:15;13.48;;;6.95;;
62724;SDS011;49026;52.600;4.694;2023-03-01T14:20:48;11.27;;;8.00;;
62724;SDS011;49026;52.600;4.694;2023-03-01T14:23:18;13.88;;;8.95;;
62724;SDS011;49026;52.600;4.694;2023-03-01T14:25:50;15.23;;;7.45;;
62724;SDS011;49026;52.600;4.694;2023-03-01T14:28:24;17.35;;;8.52;;
62724;SDS011;49026;52.600;4.694;2023-03-01T14:30:52;15.73;;;9.25;;
62724;SDS011;49026;52.600;4.694;2023-03-01T14:41:17;13.40;;;8.60;;
62724;SDS011;49026;52.600;4.694;2023-03-01T14:43:58;14.05;;;8.68;;
62724;SDS011;49026;52.600;4.694;2023-03-01T14:46:33;12.30;;;8.07;;
62724;SDS011;49026;52.600;4.694;2023-03-01T14:49:11;16.65;;;9.02;;
62724;SDS011;49026;52.600;4.694;2023-03-01T14:59:21;13.18;;;8.90;;
62724;SDS011;49026;52.600;4.694;2023-03-01T15:01:53;14.68;;;9.13;;
62724;SDS011;49026;52.600;4.694;2023-03-01T15:04:23;16.23;;;9.45;;
62724;SDS011;49026;52.600;4.694;2023-03-01T15:06:51;13.52;;;9.23;;
62724;SDS011;49026;52.600;4.694;2023-03-01T15:09:20;19.13;;;9.23;;
62724;SDS011;49026;52.600;4.694;2023-03-01T15:11:49;11.77;;;6.78;;
62724;SDS011;49026;52.600;4.694;2023-03-01T15:17:20;12.90;;;7.13;;
62724;SDS011;49026;52.600;4.694;2023-03-01T15:19:55;15.43;;;8.45;;
62724;SDS011;49026;52.600;4.694;2023-03-01T15:22:21;14.02;;;8.25;;
62724;SDS011;49026;52.600;4.694;2023-03-01T15:24:51;12.18;;;8.85;;
62724;SDS011;49026;52.600;4.694;2023-03-01T15:27:18;11.48;;;6.15;;
62724;SDS011;49026;52.600;4.694;2023-03-01T15:34:57;17.48;;;9.63;;
62724;SDS011;49026;52.600;4.694;2023-03-01T15:40:18;17.00;;;7.28;;
62724;SDS011;49026;52.600;4.694;2023-03-01T15:42:49;13.88;;;8.18;;
62724;SDS011;49026;52.600;4.694;2023-03-01T15:47:43;14.80;;;9.25;;
62724;SDS011;49026;52.600;4.694;2023-03-01T15:50:16;12.88;;;7.20;;
62724;SDS011;49026;52.600;4.694;2023-03-01T15:52:45;13.60;;;8.15;;
62724;SDS011;49026;52.600;4.694;2023-03-01T15:55:17;13.68;;;6.75;;
62724;SDS011;49026;52.600;4.694;2023-03-01T15:57:47;14.75;;;8.52;;
62724;SDS011;49026;52.600;4.694;2023-03-01T16:00:13;12.70;;;8.07;;
62724;SDS011;49026;52.600;4.694;2023-03-01T16:02:40;13.23;;;7.93;;
62724;SDS011;49026;52.600;4.694;2023-03-01T16:05:23;16.10;;;8.73;;
62724;SDS011;49026;52.600;4.694;2023-03-01T16:07:53;14.23;;;7.95;;
62724;SDS011;49026;52.600;4.694;2023-03-01T16:10:23;12.93;;;7.18;;
62724;SDS011;49026;52.600;4.694;2023-03-01T16:12:52;15.23;;;8.70;;
62724;SDS011;49026;52.600;4.694;2023-03-01T16:15:19;12.48;;;7.32;;
62724;SDS011;49026;52.600;4.694;2023-03-01T16:17:55;16.70;;;8.70;;
62724;SDS011;49026;52.600;4.694;2023-03-01T16:20:23;14.52;;;7.90;;
62724;SDS011;49026;52.600;4.694;2023-03-01T16:22:51;17.50;;;11.15;;
62724;SDS011;49026;52.600;4.694;2023-03-01T16:25:18;18.38;;;10.13;;
62724;SDS011;49026;52.600;4.694;2023-03-01T16:27:45;16.95;;;9.45;;
62724;SDS011;49026;52.600;4.694;2023-03-01T16:30:13;15.57;;;8.10;;
62724;SDS011;49026;52.600;4.694;2023-03-01T16:32:40;15.10;;;8.55;;
62724;SDS011;49026;52.600;4.694;2023-03-01T16:35:07;24.88;;;11.88;;
62724;SDS011;49026;52.600;4.694;2023-03-01T16:37:34;17.40;;;10.77;;
62724;SDS011;49026;52.600;4.694;2023-03-01T16:40:00;14.25;;;8.77;;
62724;SDS011;49026;52.600;4.694;2023-03-01T16:42:26;16.75;;;9.98;;
62724;SDS011;49026;52.600;4.694;2023-03-01T16:44:54;17.90;;;9.70;;
62724;SDS011;49026;52.600;4.694;2023-03-01T16:47:20;12.25;;;7.20;;
62724;SDS011;49026;52.600;4.694;2023-03-01T16:49:46;18.10;;;10.52;;
62724;SDS011;49026;52.600;4.694;2023-03-01T16:52:11;15.68;;;9.00;;
62724;SDS011;49026;52.600;4.694;2023-03-01T16:54:37;16.38;;;9.15;;
62724;SDS011;49026;52.600;4.694;2023-03-01T16:57:02;19.38;;;9.10;;
62724;SDS011;49026;52.600;4.694;2023-03-01T16:59:27;12.15;;;7.70;;
62724;SDS011;49026;52.600;4.694;2023-03-01T17:01:53;15.48;;;8.88;;